createdAt,value
2022-11-30T00:00:30.118Z,24.45
2022-11-30T00:02:59.604Z,22.60
2022-11-30T00:05:26.205Z,25.20
2022-11-30T00:07:54.500Z,23.88
2022-11-30T00:10:21.785Z,24.33
2022-11-30T00:12:48.436Z,24.33
2022-11-30T00:15:17.012Z,22.33
2022-11-30T00:17:44.249Z,24.02
2022-11-30T00:20:11.692Z,24.83
2022-11-30T00:22:38.070Z,25.70
2022-11-30T00:25:04.865Z,23.17
2022-11-30T00:27:31.882Z,24.77
2022-11-30T00:29:58.491Z,25.67
2022-11-30T00:32:25.611Z,25.17
2022-11-30T00:34:52.041Z,25.40
2022-11-30T00:37:18.574Z,22.92
2022-11-30T00:39:44.893Z,24.38
2022-11-30T00:42:11.264Z,23.77
2022-11-30T00:44:37.591Z,26.27
2022-11-30T00:47:04.031Z,26.80
2022-11-30T00:49:30.388Z,28.75
2022-11-30T00:51:56.689Z,26.95
2022-11-30T00:54:23.083Z,25.80
2022-11-30T00:56:49.448Z,22.83
2022-11-30T00:59:15.732Z,24.05
2022-11-30T01:01:42.795Z,24.30
2022-11-30T01:04:09.131Z,22.75
2022-11-30T01:06:35.454Z,22.77
2022-11-30T01:09:02.880Z,21.55
2022-11-30T01:11:30.051Z,22.48
2022-11-30T01:13:57.524Z,23.30
2022-11-30T01:16:28.583Z,24.92
2022-11-30T01:18:55.024Z,22.77
2022-11-30T01:21:22.672Z,24.50
2022-11-30T01:23:49.385Z,24.67
2022-11-30T01:26:16.177Z,26.63
2022-11-30T01:28:45.532Z,27.42
2022-11-30T01:31:13.524Z,27.45
2022-11-30T01:33:40.516Z,26.08
2022-11-30T01:36:14.260Z,26.15
2022-11-30T01:38:41.659Z,25.95
2022-11-30T01:41:08.924Z,25.20
2022-11-30T01:43:46.128Z,26.63
2022-11-30T01:46:32.842Z,27.90
2022-11-30T01:49:11.506Z,27.55
2022-11-30T01:51:43.773Z,26.38
2022-11-30T01:54:11.601Z,28.35
2022-11-30T01:56:41.389Z,28.15
2022-11-30T01:59:07.942Z,28.15
2022-11-30T02:01:34.369Z,28.08
2022-11-30T02:04:13.076Z,29.67
2022-11-30T02:06:39.444Z,27.73
2022-11-30T02:09:05.748Z,28.67
2022-11-30T02:11:32.070Z,27.40
2022-11-30T02:14:16.143Z,27.02
2022-11-30T02:16:45.497Z,27.23
2022-11-30T02:19:30.894Z,28.05
2022-11-30T02:21:57.233Z,26.45
2022-11-30T02:24:23.559Z,27.67
2022-11-30T02:27:08.852Z,26.15
2022-11-30T02:29:40.998Z,25.75
2022-11-30T02:32:14.146Z,25.90
2022-11-30T02:34:42.535Z,26.42
2022-11-30T02:37:09.762Z,24.25
2022-11-30T02:39:36.071Z,25.17
2022-11-30T02:42:02.405Z,25.20
2022-11-30T02:44:29.008Z,26.05
2022-11-30T02:47:12.502Z,24.55
2022-11-30T02:49:57.413Z,26.20
2022-11-30T02:52:25.899Z,25.42
2022-11-30T02:54:52.858Z,25.23
2022-11-30T02:57:19.203Z,24.35
2022-11-30T02:59:45.597Z,24.23
2022-11-30T03:02:11.978Z,23.45
2022-11-30T03:04:38.333Z,23.00
2022-11-30T03:07:04.900Z,23.40
2022-11-30T03:09:31.216Z,23.10
2022-11-30T03:11:57.575Z,22.48
2022-11-30T03:14:23.876Z,23.23
2022-11-30T03:16:50.309Z,23.27
2022-11-30T03:19:16.779Z,21.45
2022-11-30T03:21:43.158Z,22.88
2022-11-30T03:24:09.567Z,21.95
2022-11-30T03:26:35.904Z,22.83
2022-11-30T03:29:02.274Z,22.25
2022-11-30T03:31:28.699Z,22.38
2022-11-30T03:33:55.047Z,21.30
2022-11-30T03:36:21.423Z,20.50
2022-11-30T03:38:47.844Z,22.55
2022-11-30T03:41:16.211Z,21.75
2022-11-30T03:43:43.044Z,22.38
2022-11-30T03:46:09.424Z,20.35
2022-11-30T03:48:36.833Z,19.65
2022-11-30T03:51:04.281Z,19.50
2022-11-30T03:53:31.034Z,18.85
2022-11-30T03:55:59.866Z,16.63
2022-11-30T03:58:26.392Z,17.80
2022-11-30T04:01:01.806Z,18.38
2022-11-30T04:03:28.521Z,18.40
2022-11-30T04:05:55.326Z,18.95
2022-11-30T04:08:22.088Z,17.20
2022-11-30T04:10:51.054Z,16.08
2022-11-30T04:13:17.566Z,17.77
2022-11-30T04:15:45.609Z,20.02
2022-11-30T04:18:12.017Z,17.48
2022-11-30T04:20:40.553Z,16.77
2022-11-30T04:23:07.425Z,15.88
2022-11-30T04:25:33.852Z,16.92
2022-11-30T04:28:00.167Z,18.08
2022-11-30T04:30:26.504Z,17.15
2022-11-30T04:32:52.855Z,16.15
2022-11-30T04:35:19.158Z,18.02
2022-11-30T04:37:45.459Z,17.10
2022-11-30T04:40:12.172Z,17.02
2022-11-30T04:42:38.464Z,17.17
2022-11-30T04:45:04.951Z,17.38
2022-11-30T04:47:31.298Z,17.23
2022-11-30T04:49:57.608Z,18.42
2022-11-30T04:52:23.896Z,16.92
2022-11-30T04:54:51.450Z,17.33
2022-11-30T04:57:18.083Z,17.27
2022-11-30T04:59:44.424Z,16.23
2022-11-30T05:02:10.787Z,17.17
2022-11-30T05:04:37.165Z,16.80
2022-11-30T05:07:03.624Z,16.17
2022-11-30T05:09:29.972Z,16.65
2022-11-30T05:11:56.362Z,16.50
2022-11-30T05:14:22.715Z,16.92
2022-11-30T05:16:49.171Z,16.17
2022-11-30T05:19:15.747Z,15.27
2022-11-30T05:21:45.560Z,14.65
2022-11-30T05:24:12.303Z,15.25
2022-11-30T05:26:38.670Z,16.58
2022-11-30T05:29:05.567Z,17.27
2022-11-30T05:31:32.420Z,16.45
2022-11-30T05:33:58.767Z,15.30
2022-11-30T05:36:25.190Z,15.07
2022-11-30T05:38:51.540Z,15.13
2022-11-30T05:41:17.927Z,15.38
2022-11-30T05:43:44.739Z,15.35
2022-11-30T05:46:11.040Z,16.00
2022-11-30T05:48:37.371Z,16.02
2022-11-30T05:51:11.300Z,15.93
2022-11-30T05:56:11.513Z,17.35
2022-11-30T06:01:04.187Z,17.25
2022-11-30T06:03:31.225Z,16.40
2022-11-30T06:05:57.599Z,16.52
2022-11-30T06:08:24.359Z,18.35
2022-11-30T06:10:50.865Z,18.20
2022-11-30T06:13:17.541Z,18.17
2022-11-30T06:15:43.849Z,18.70
2022-11-30T06:18:11.759Z,18.40
2022-11-30T06:20:38.123Z,17.42
2022-11-30T06:23:04.423Z,17.40
2022-11-30T06:25:30.719Z,17.35
2022-11-30T06:27:57.071Z,18.30
2022-11-30T06:30:23.500Z,18.38
2022-11-30T06:32:51.051Z,18.27
2022-11-30T06:35:18.268Z,17.70
2022-11-30T06:37:44.964Z,18.60
2022-11-30T06:40:12.661Z,18.13
2022-11-30T06:42:39.163Z,19.83
2022-11-30T06:45:06.136Z,19.40
2022-11-30T06:47:32.550Z,18.63
2022-11-30T06:49:58.842Z,17.05
2022-11-30T06:52:25.262Z,17.73
2022-11-30T06:54:51.559Z,17.20
2022-11-30T06:57:17.904Z,18.67
2022-11-30T06:59:44.251Z,20.67
2022-11-30T07:02:17.981Z,20.73
2022-11-30T07:04:45.112Z,21.52
2022-11-30T07:07:11.656Z,19.77
2022-11-30T07:09:37.991Z,19.10
2022-11-30T07:12:04.707Z,17.30
2022-11-30T07:14:31.075Z,15.82
2022-11-30T07:16:57.395Z,17.00
2022-11-30T07:19:23.712Z,15.75
2022-11-30T07:21:50.027Z,15.38
2022-11-30T07:24:35.018Z,14.85
2022-11-30T07:27:02.224Z,14.55
2022-11-30T07:29:28.703Z,14.35
2022-11-30T07:31:55.054Z,14.90
2022-11-30T07:34:21.915Z,15.10
2022-11-30T07:36:48.428Z,14.90
2022-11-30T07:39:14.787Z,14.85
2022-11-30T07:41:41.568Z,15.85
2022-11-30T07:44:09.198Z,13.98
2022-11-30T07:46:36.197Z,13.38
2022-11-30T07:49:06.893Z,12.93
2022-11-30T07:51:33.618Z,12.38
2022-11-30T07:54:00.102Z,13.60
2022-11-30T07:56:27.165Z,12.98
2022-11-30T07:58:54.670Z,12.80
2022-11-30T08:01:22.349Z,12.82
2022-11-30T08:03:49.394Z,13.45
2022-11-30T08:06:20.832Z,13.32
2022-11-30T08:08:47.822Z,13.10
2022-11-30T08:11:15.466Z,13.07
2022-11-30T08:13:42.073Z,12.65
2022-11-30T08:16:09.248Z,13.63
2022-11-30T08:18:35.948Z,12.50
2022-11-30T08:21:03.954Z,12.90
2022-11-30T08:23:35.126Z,13.15
2022-11-30T08:26:12.125Z,13.90
2022-11-30T08:28:39.466Z,14.40
2022-11-30T08:31:07.942Z,14.38
2022-11-30T08:33:34.678Z,14.10
2022-11-30T08:36:08.244Z,14.90
2022-11-30T08:38:35.091Z,15.00
2022-11-30T08:41:01.747Z,15.50
2022-11-30T08:43:28.280Z,15.93
2022-11-30T08:45:57.390Z,15.00
2022-11-30T08:48:24.406Z,15.85
2022-11-30T08:50:50.876Z,17.35
2022-11-30T08:53:17.172Z,17.88
2022-11-30T08:55:43.466Z,17.30
2022-11-30T08:58:09.992Z,16.92
2022-11-30T09:00:36.354Z,17.92
2022-11-30T09:03:02.713Z,16.98
2022-11-30T09:05:29.164Z,16.30
2022-11-30T09:07:55.569Z,15.90
2022-11-30T09:10:22.063Z,17.40
2022-11-30T09:12:48.379Z,16.75
2022-11-30T09:15:14.675Z,16.52
2022-11-30T09:17:41.030Z,15.43
2022-11-30T09:20:07.831Z,14.75
2022-11-30T09:22:34.224Z,13.68
2022-11-30T09:25:00.517Z,15.05
2022-11-30T09:27:30.279Z,15.88
2022-11-30T09:29:57.021Z,14.35
2022-11-30T09:32:23.371Z,15.45
2022-11-30T09:34:50.889Z,15.13
2022-11-30T09:37:17.497Z,15.32
2022-11-30T09:39:43.826Z,14.70
2022-11-30T09:42:28.974Z,14.85
2022-11-30T09:44:58.296Z,14.73
2022-11-30T09:47:32.214Z,15.02
2022-11-30T09:50:02.188Z,13.32
2022-11-30T09:52:34.431Z,14.20
2022-11-30T09:55:06.433Z,13.38
2022-11-30T09:57:41.989Z,13.27
2022-11-30T10:00:19.160Z,13.93
2022-11-30T10:02:45.897Z,13.43
2022-11-30T10:05:20.951Z,13.48
2022-11-30T10:08:07.069Z,13.20
2022-11-30T10:10:36.579Z,13.43
2022-11-30T10:13:16.168Z,12.50
2022-11-30T10:16:12.968Z,13.35
2022-11-30T10:18:51.676Z,15.13
2022-11-30T10:21:38.421Z,16.60
2022-11-30T10:24:17.430Z,17.40
2022-11-30T10:26:49.701Z,16.92
2022-11-30T10:29:18.980Z,18.63
2022-11-30T10:31:47.351Z,17.30
2022-11-30T10:34:20.318Z,17.85
2022-11-30T10:36:58.913Z,18.15
2022-11-30T10:39:45.524Z,19.08
2022-11-30T10:42:15.056Z,18.52
2022-11-30T10:44:43.699Z,17.35
2022-11-30T10:47:13.011Z,19.20
2022-11-30T10:49:41.347Z,17.55
2022-11-30T10:52:08.887Z,17.70
2022-11-30T10:54:35.836Z,17.52
2022-11-30T10:57:03.108Z,18.38
2022-11-30T10:59:34.351Z,19.25
2022-11-30T11:02:01.152Z,18.73
2022-11-30T11:04:27.881Z,18.65
2022-11-30T11:06:56.850Z,20.10
2022-11-30T11:09:34.518Z,19.23
2022-11-30T11:12:15.023Z,19.33
2022-11-30T11:14:41.320Z,18.08
2022-11-30T11:17:20.053Z,17.15
2022-11-30T11:19:47.406Z,17.73
2022-11-30T11:22:24.343Z,14.55
2022-11-30T11:24:53.259Z,12.63
2022-11-30T11:27:30.689Z,12.27
2022-11-30T11:30:08.195Z,12.52
2022-11-30T11:32:35.137Z,10.80
2022-11-30T11:35:01.549Z,10.98
2022-11-30T11:37:33.583Z,11.95
2022-11-30T11:40:01.631Z,12.88
2022-11-30T11:42:30.717Z,11.98
2022-11-30T11:44:58.641Z,11.75
2022-11-30T11:47:26.642Z,11.95
2022-11-30T11:50:04.332Z,12.88
2022-11-30T11:52:30.705Z,11.30
2022-11-30T11:55:02.900Z,12.50
2022-11-30T11:57:37.945Z,12.40
2022-11-30T12:00:09.886Z,11.27
2022-11-30T12:02:54.647Z,11.15
2022-11-30T12:05:26.457Z,10.30
2022-11-30T12:08:04.992Z,10.20
2022-11-30T12:10:52.659Z,10.10
2022-11-30T12:13:22.061Z,9.93
2022-11-30T12:16:00.849Z,11.80
2022-11-30T12:18:33.125Z,13.85
2022-11-30T12:21:07.486Z,14.45
2022-11-30T12:23:52.726Z,12.30
2022-11-30T12:26:25.496Z,12.57
2022-11-30T12:29:05.213Z,10.27
2022-11-30T12:31:39.500Z,11.60
2022-11-30T12:34:08.898Z,9.85
2022-11-30T12:36:41.452Z,9.27
2022-11-30T12:39:10.816Z,9.02
2022-11-30T12:41:49.626Z,7.85
2022-11-30T12:44:22.485Z,9.10
2022-11-30T12:46:48.942Z,9.25
2022-11-30T12:49:21.352Z,8.50
2022-11-30T12:52:13.739Z,8.52
2022-11-30T12:54:52.720Z,8.80
2022-11-30T12:57:37.252Z,8.20
2022-11-30T13:00:06.801Z,8.77
2022-11-30T13:02:45.121Z,8.00
2022-11-30T13:05:13.567Z,9.50
2022-11-30T13:07:43.174Z,9.85
2022-11-30T13:10:15.694Z,8.75
2022-11-30T13:12:43.690Z,9.40
2022-11-30T13:15:15.780Z,9.10
2022-11-30T13:17:42.864Z,9.18
2022-11-30T13:20:14.301Z,9.88
2022-11-30T13:22:48.468Z,9.77
2022-11-30T13:25:34.102Z,10.25
2022-11-30T13:28:16.850Z,10.30
2022-11-30T13:30:52.673Z,10.35
2022-11-30T13:33:34.671Z,12.35
2022-11-30T13:36:19.948Z,12.63
2022-11-30T13:38:46.442Z,13.95
2022-11-30T13:41:19.598Z,14.15
2022-11-30T13:43:47.939Z,15.73
2022-11-30T13:46:19.317Z,15.57
2022-11-30T13:48:45.992Z,16.17
2022-11-30T13:51:12.723Z,17.90
2022-11-30T13:53:39.903Z,16.25
2022-11-30T13:56:18.494Z,16.92
2022-11-30T13:59:03.599Z,17.75
2022-11-30T14:01:29.904Z,18.05
2022-11-30T14:04:14.468Z,19.52
2022-11-30T14:06:48.425Z,19.65
2022-11-30T14:11:42.355Z,20.15
2022-11-30T14:14:30.397Z,20.40
2022-11-30T14:16:57.545Z,21.73
2022-11-30T14:19:23.965Z,21.75
2022-11-30T14:21:50.464Z,22.35
2022-11-30T14:24:19.175Z,22.88
2022-11-30T14:26:50.320Z,22.50
2022-11-30T14:29:23.200Z,23.67
2022-11-30T14:31:54.325Z,23.88
2022-11-30T14:34:23.315Z,24.23
2022-11-30T14:36:55.025Z,27.13
2022-11-30T14:39:35.326Z,30.90
2022-11-30T14:42:02.122Z,33.70
2022-11-30T14:44:34.068Z,34.30
2022-11-30T14:47:23.697Z,36.40
2022-11-30T14:49:54.955Z,38.47
2022-11-30T14:52:40.158Z,38.58
2022-11-30T14:55:06.444Z,37.45
2022-11-30T14:57:43.611Z,40.58
2022-11-30T15:00:17.360Z,40.28
2022-11-30T15:02:44.321Z,41.88
2022-11-30T15:05:26.741Z,40.22
2022-11-30T15:07:53.510Z,40.17
2022-11-30T15:10:30.639Z,41.53
2022-11-30T15:12:57.977Z,43.58
2022-11-30T15:15:26.433Z,42.65
2022-11-30T15:17:52.804Z,42.03
2022-11-30T15:20:22.653Z,41.03
2022-11-30T15:22:48.992Z,41.15
2022-11-30T15:25:15.433Z,40.58
2022-11-30T15:27:42.091Z,41.83
2022-11-30T15:30:13.044Z,40.70
2022-11-30T15:32:39.404Z,40.03
2022-11-30T15:35:05.975Z,40.08
2022-11-30T15:37:33.676Z,39.45
2022-11-30T15:40:01.718Z,38.15
2022-11-30T15:42:39.464Z,38.00
2022-11-30T15:45:21.369Z,36.20
2022-11-30T15:47:47.789Z,34.63
2022-11-30T15:50:26.339Z,35.78
2022-11-30T15:52:53.983Z,36.33
2022-11-30T15:55:39.076Z,37.00
2022-11-30T15:58:05.438Z,36.45
2022-11-30T16:00:31.807Z,37.38
2022-11-30T16:03:11.514Z,34.45
2022-11-30T16:05:53.346Z,29.05
2022-11-30T16:08:19.718Z,27.75
2022-11-30T16:10:46.175Z,30.00
2022-11-30T16:13:13.781Z,28.40
2022-11-30T16:15:43.457Z,27.90
2022-11-30T16:18:18.136Z,27.23
2022-11-30T16:20:46.081Z,28.00
2022-11-30T16:23:15.063Z,27.77
2022-11-30T16:25:42.228Z,26.88
2022-11-30T16:28:09.552Z,27.08
2022-11-30T16:30:36.083Z,26.98
2022-11-30T16:33:02.517Z,25.48
2022-11-30T16:35:40.339Z,26.05
2022-11-30T16:38:06.682Z,25.20
2022-11-30T16:40:38.559Z,25.45
2022-11-30T16:43:05.643Z,25.35
2022-11-30T16:45:34.598Z,25.75
2022-11-30T16:48:00.939Z,23.52
2022-11-30T16:50:27.276Z,24.02
2022-11-30T16:52:53.624Z,23.27
2022-11-30T16:55:21.486Z,22.40
2022-11-30T16:57:48.447Z,26.50
2022-11-30T17:00:16.929Z,26.05
2022-11-30T17:02:47.180Z,26.38
2022-11-30T17:05:14.541Z,23.23
2022-11-30T17:07:41.114Z,25.30
2022-11-30T17:10:08.196Z,25.13
2022-11-30T17:12:35.510Z,25.73
2022-11-30T17:15:02.114Z,26.08
2022-11-30T17:17:28.469Z,27.27
2022-11-30T17:19:54.747Z,27.05
2022-11-30T17:22:21.037Z,27.67
2022-11-30T17:24:47.664Z,26.38
2022-11-30T17:27:14.168Z,36.03
2022-11-30T17:29:41.528Z,22.20
2022-11-30T17:32:07.835Z,20.80
2022-11-30T17:34:34.152Z,19.90
2022-11-30T17:37:00.524Z,19.95
2022-11-30T17:39:26.837Z,20.73
2022-11-30T17:41:53.193Z,30.75
2022-11-30T17:44:19.523Z,32.15
2022-11-30T17:46:48.494Z,23.70
2022-11-30T17:49:14.993Z,33.88
2022-11-30T17:51:41.358Z,29.05
2022-11-30T17:54:07.713Z,30.90
2022-11-30T17:56:34.249Z,28.10
2022-11-30T17:59:00.844Z,30.15
2022-11-30T18:01:27.326Z,26.50
2022-11-30T18:03:54.878Z,25.50
2022-11-30T18:06:21.269Z,24.08
2022-11-30T18:08:47.681Z,25.60
2022-11-30T18:11:21.350Z,23.95
2022-11-30T18:13:48.613Z,22.25
2022-11-30T18:16:16.595Z,22.00
2022-11-30T18:18:47.704Z,22.50
2022-11-30T18:21:15.260Z,22.77
2022-11-30T18:23:41.848Z,22.83
2022-11-30T18:26:10.260Z,23.13
2022-11-30T18:28:36.555Z,21.38
2022-11-30T18:31:04.626Z,22.40
2022-11-30T18:33:31.041Z,22.50
2022-11-30T18:35:58.424Z,21.85
2022-11-30T18:38:25.005Z,22.60
2022-11-30T18:40:52.037Z,28.42
2022-11-30T18:43:18.359Z,27.73
2022-11-30T18:45:44.779Z,26.52
2022-11-30T18:48:11.110Z,24.90
2022-11-30T18:50:37.496Z,24.70
2022-11-30T18:53:04.161Z,21.48
2022-11-30T18:55:30.573Z,22.15
2022-11-30T18:57:57.077Z,19.17
2022-11-30T19:00:23.717Z,20.35
2022-11-30T19:02:50.382Z,20.85
2022-11-30T19:05:32.061Z,20.67
2022-11-30T19:07:59.009Z,19.42
2022-11-30T19:10:25.525Z,20.88
2022-11-30T19:12:51.907Z,20.10
2022-11-30T19:15:18.320Z,18.45
2022-11-30T19:17:44.639Z,18.45
2022-11-30T19:20:11.207Z,18.52
2022-11-30T19:22:37.577Z,19.45
2022-11-30T19:25:04.013Z,18.80
2022-11-30T19:27:30.306Z,18.98
2022-11-30T19:29:56.727Z,20.05
2022-11-30T19:32:23.041Z,21.60
2022-11-30T19:34:49.852Z,23.00
2022-11-30T19:37:16.414Z,20.65
2022-11-30T19:39:42.711Z,19.85
2022-11-30T19:42:10.854Z,25.05
2022-11-30T19:44:37.201Z,20.58
2022-11-30T19:47:03.503Z,21.33
2022-11-30T19:49:29.798Z,23.20
2022-11-30T19:51:56.075Z,21.52
2022-11-30T19:54:22.441Z,21.55
2022-11-30T19:56:49.287Z,22.90
2022-11-30T19:59:15.620Z,22.98
2022-11-30T20:01:42.025Z,24.55
2022-11-30T20:04:08.401Z,21.27
2022-11-30T20:06:35.907Z,22.63
2022-11-30T20:09:03.508Z,22.45
2022-11-30T20:11:29.943Z,22.48
2022-11-30T20:13:56.310Z,22.02
2022-11-30T20:16:23.042Z,23.20
2022-11-30T20:18:57.119Z,22.55
2022-11-30T20:21:24.772Z,21.98
2022-11-30T20:23:51.734Z,21.38
2022-11-30T20:26:22.634Z,23.58
2022-11-30T20:28:50.018Z,24.40
2022-11-30T20:31:17.302Z,23.33
2022-11-30T20:33:43.775Z,22.98
2022-11-30T20:36:10.798Z,26.35
2022-11-30T20:38:37.709Z,28.88
2022-11-30T20:41:04.537Z,29.30
2022-11-30T20:43:30.900Z,29.73
2022-11-30T20:45:57.264Z,28.77
2022-11-30T20:48:23.728Z,28.83
2022-11-30T20:51:21.686Z,27.98
2022-11-30T20:53:36.434Z,30.80
2022-11-30T20:56:02.848Z,31.25
2022-11-30T20:58:29.226Z,31.45
2022-11-30T21:00:55.524Z,31.63
2022-11-30T21:03:21.835Z,31.20
2022-11-30T21:05:48.093Z,29.83
2022-11-30T21:08:14.490Z,30.52
2022-11-30T21:10:40.856Z,30.95
2022-11-30T21:13:07.170Z,31.40
2022-11-30T21:15:33.568Z,30.20
2022-11-30T21:17:59.973Z,29.63
2022-11-30T21:20:26.616Z,30.23
2022-11-30T21:22:52.946Z,30.10
2022-11-30T21:25:19.383Z,32.00
2022-11-30T21:27:50.501Z,28.30
2022-11-30T21:30:16.935Z,30.10
2022-11-30T21:32:43.315Z,28.75
2022-11-30T21:35:09.997Z,28.38
2022-11-30T21:37:36.274Z,29.30
2022-11-30T21:40:02.631Z,29.42
2022-11-30T21:42:28.911Z,28.63
2022-11-30T21:44:55.344Z,28.63
2022-11-30T21:47:21.684Z,27.48
2022-11-30T21:49:48.078Z,29.63
2022-11-30T21:52:14.441Z,27.77
2022-11-30T21:54:40.807Z,30.00
2022-11-30T21:57:07.120Z,30.05
2022-11-30T21:59:33.399Z,30.42
2022-11-30T22:01:59.763Z,30.17
2022-11-30T22:04:26.195Z,31.10
2022-11-30T22:06:52.588Z,31.27
2022-11-30T22:09:18.965Z,30.60
2022-11-30T22:11:45.394Z,31.00
2022-11-30T22:14:13.173Z,31.45
2022-11-30T22:16:39.658Z,32.25
2022-11-30T22:19:06.688Z,30.10
2022-11-30T22:21:33.065Z,30.23
2022-11-30T22:24:00.536Z,29.17
2022-11-30T22:26:31.419Z,28.42
2022-11-30T22:28:58.808Z,28.70
2022-11-30T22:31:27.368Z,27.63
2022-11-30T22:33:53.758Z,26.98
2022-11-30T22:36:21.458Z,27.00
2022-11-30T22:38:52.659Z,25.85
2022-11-30T22:41:18.928Z,26.50
2022-11-30T22:43:48.747Z,25.23
2022-11-30T22:46:16.391Z,25.63
2022-11-30T22:48:42.992Z,26.42
2022-11-30T22:51:14.376Z,27.42
2022-11-30T22:53:41.226Z,27.00
2022-11-30T22:56:12.711Z,26.15
2022-11-30T22:58:39.554Z,27.25
2022-11-30T23:01:16.428Z,28.35
2022-11-30T23:03:43.377Z,26.83
2022-11-30T23:06:10.550Z,26.25
2022-11-30T23:08:37.470Z,25.73
2022-11-30T23:11:06.071Z,25.02
2022-11-30T23:13:32.475Z,26.52
2022-11-30T23:15:59.863Z,25.90
2022-11-30T23:18:30.040Z,25.27
2022-11-30T23:20:57.413Z,26.98
2022-11-30T23:23:23.832Z,27.27
2022-11-30T23:25:50.215Z,29.50
2022-11-30T23:28:16.905Z,28.35
2022-11-30T23:30:43.194Z,29.25
2022-11-30T23:33:10.182Z,31.27
2022-11-30T23:35:37.907Z,31.08
2022-11-30T23:38:04.219Z,31.85
2022-11-30T23:40:30.526Z,32.75
2022-11-30T23:42:56.877Z,33.58
2022-11-30T23:45:23.201Z,33.15
2022-11-30T23:47:49.483Z,31.88
2022-11-30T23:50:15.856Z,29.25
2022-11-30T23:52:42.190Z,30.20
2022-11-30T23:55:08.767Z,29.23
2022-11-30T23:57:35.082Z,30.92
